This is the latest recevied weather packets stored in our database for station/object SQ9PDE-13. If no packets are shown the sender has not sent any weather packets the latest 10 day(s).
| Time | Temp. | Humidity | Pressure | Rain* | Wind** | Luminosity | Snow |
|---|---|---|---|---|---|---|---|
| 1777977898 | 25.56° C | 31% | 1006.3 hPa | - | - | - | - |
| 1777977598 | 26.67° C | 31% | 1006.2 hPa | - | - | - | - |
| 1777977297 | 26.67° C | 31% | 1006.3 hPa | - | - | - | - |
| 1777976997 | 26.11° C | 32% | 1006.3 hPa | - | - | - | - |
| 1777976696 | 26.11° C | 32% | 1006.4 hPa | - | - | - | - |
| 1777976396 | 25° C | 33% | 1006.7 hPa | - | - | - | - |
| 1777976095 | 26.11° C | 32% | 1006.6 hPa | - | - | - | - |
| 1777975795 | 25° C | 33% | 1006.8 hPa | - | - | - | - |
| 1777975494 | 24.44° C | 33% | 1007 hPa | - | - | - | - |
| 1777975194 | 26.11° C | 32% | 1006.8 hPa | - | - | - | - |
| 1777974893 | 25° C | 33% | 1007 hPa | - | - | - | - |
| 1777974593 | 26.11° C | 33% | 1007.1 hPa | - | - | - | - |
| 1777974292 | 25.56° C | 33% | 1007.2 hPa | - | - | - | - |
| 1777973991 | 26.67° C | 33% | 1007.2 hPa | - | - | - | - |
| 1777973691 | 25° C | 35% | 1007.8 hPa | - | - | - | - |
| 1777973390 | 25.56° C | 36% | 1007.7 hPa | - | - | - | - |
| 1777973090 | 24.44° C | 35% | 1007.7 hPa | - | - | - | - |
| 1777972789 | 25° C | 35% | 1007.7 hPa | - | - | - | - |
| 1777972489 | 25° C | 37% | 1008.1 hPa | - | - | - | - |
| 1777972189 | 24.44° C | 37% | 1008.5 hPa | - | - | - | - |
| 1777971888 | 26.11° C | 36% | 1008.4 hPa | - | - | - | - |
| 1777971588 | 26.11° C | 37% | 1008.3 hPa | - | - | - | - |
| 1777971287 | 24.44° C | 38% | 1008.5 hPa | - | - | - | - |
| 1777970987 | 25.56° C | 38% | 1008.4 hPa | - | - | - | - |
| 1777970686 | 25° C | 38% | 1008.7 hPa | - | - | - | - |
* Rain since midnight (hover to see other rain measurements)
** Current wind speed in m/s (hover to see current wind gust speed)